Time,TemperatureF,DewpointF,PressureIn,WindDirection,WindDirectionDegrees,WindSpeedMPH,WindSpeedGustMPH,Humidity,HourlyPrecipIn,Conditions,Clouds,dailyrainin,SoftwareType,DateUTC
2013-09-09 00:13:00,76.0,-99.9,-100.00,SE,140,3.0,6.0,-999,0.00,,,0.00,,2013-09-09 05:13:00,
2013-09-09 00:23:00,76.0,-99.9,-100.00,SE,140,3.0,6.0,-999,0.00,,,0.00,,2013-09-09 05:23:00,
2013-09-09 00:43:00,76.0,-99.9,-100.00,SE,141,3.0,4.0,-999,0.00,,,0.00,,2013-09-09 05:43:00,
2013-09-09 00:53:00,76.0,-99.9,-100.00,SE,141,3.0,4.0,-999,0.00,,,0.00,,2013-09-09 05:53:00,
2013-09-09 01:12:00,75.0,-99.9,-100.00,SSE,149,2.0,4.0,-999,0.00,,,0.00,,2013-09-09 06:12:00,
2013-09-09 01:22:00,75.0,-99.9,-100.00,SSE,149,2.0,4.0,-999,0.00,,,0.00,,2013-09-09 06:22:00,
2013-09-09 01:42:00,75.0,-99.9,-100.00,SE,131,4.0,7.0,-999,0.00,,,0.00,,2013-09-09 06:42:00,
2013-09-09 01:52:00,75.0,-99.9,-100.00,SE,131,4.0,7.0,-999,0.00,,,0.00,,2013-09-09 06:52:00,
2013-09-09 02:12:00,74.0,-99.9,-100.00,SSE,147,1.0,3.0,-999,0.00,,,0.00,,2013-09-09 07:12:00,
2013-09-09 02:22:00,74.0,-99.9,-100.00,SSE,147,1.0,3.0,-999,0.00,,,0.00,,2013-09-09 07:22:00,
2013-09-09 02:43:00,74.0,-99.9,-100.00,SSE,155,1.0,2.0,-999,0.00,,,0.00,,2013-09-09 07:43:00,
2013-09-09 02:53:00,74.0,-99.9,-100.00,SSE,155,1.0,2.0,-999,0.00,,,0.00,,2013-09-09 07:53:00,
2013-09-09 03:12:00,74.0,-99.9,-100.00,SE,145,2.0,6.0,-999,0.00,,,0.00,,2013-09-09 08:12:00,
2013-09-09 03:22:00,74.0,-99.9,-100.00,SE,145,2.0,6.0,-999,0.00,,,0.00,,2013-09-09 08:22:00,
2013-09-09 03:43:00,74.0,-99.9,-100.00,SE,131,2.0,6.0,-999,0.00,,,0.00,,2013-09-09 08:43:00,
2013-09-09 03:52:00,74.0,-99.9,-100.00,SE,131,2.0,6.0,-999,0.00,,,0.00,,2013-09-09 08:52:00,
2013-09-09 04:12:00,73.0,-99.9,-100.00,SE,127,2.0,6.0,-999,0.00,,,0.00,,2013-09-09 09:12:00,
2013-09-09 04:22:00,73.0,-99.9,-100.00,SE,127,2.0,6.0,-999,0.00,,,0.00,,2013-09-09 09:22:00,
2013-09-09 04:43:00,73.0,-99.9,-100.00,SE,136,1.0,3.0,-999,0.00,,,0.00,,2013-09-09 09:43:00,
2013-09-09 04:54:00,73.0,-99.9,-100.00,SE,136,1.0,3.0,-999,0.00,,,0.00,,2013-09-09 09:54:00,
2013-09-09 05:12:00,73.0,-99.9,-100.00,SSE,154,1.0,2.0,-999,0.00,,,0.00,,2013-09-09 10:12:00,
2013-09-09 05:23:00,73.0,-99.9,-100.00,SSE,154,1.0,2.0,-999,0.00,,,0.00,,2013-09-09 10:23:00,
2013-09-09 05:43:00,73.0,-99.9,-100.00,SSE,150,1.0,3.0,-999,0.00,,,0.00,,2013-09-09 10:43:00,
2013-09-09 05:53:00,73.0,-99.9,-100.00,SSE,150,1.0,3.0,-999,0.00,,,0.00,,2013-09-09 10:53:00,
2013-09-09 06:12:00,73.0,-99.9,-100.00,SE,130,1.0,3.0,-999,0.00,,,0.00,,2013-09-09 11:12:00,
2013-09-09 06:22:00,73.0,-99.9,-100.00,SE,130,1.0,3.0,-999,0.00,,,0.00,,2013-09-09 11:22:00,
2013-09-09 06:42:00,72.0,-99.9,-100.00,SE,138,2.0,5.0,-999,0.00,,,0.00,,2013-09-09 11:42:00,
2013-09-09 06:52:00,72.0,-99.9,-100.00,SE,138,2.0,5.0,-999,0.00,,,0.00,,2013-09-09 11:52:00,
2013-09-09 07:12:00,73.0,-99.9,-100.00,SSE,163,1.0,3.0,-999,0.00,,,0.00,,2013-09-09 12:12:00,
2013-09-09 07:22:00,73.0,-99.9,-100.00,SSE,163,1.0,3.0,-999,0.00,,,0.00,,2013-09-09 12:22:00,
2013-09-09 07:30:00,75.0,-99.9,-100.00,SE,137,1.0,2.0,-999,0.00,,,0.00,,2013-09-09 12:30:00,
2013-09-09 07:42:00,73.0,-99.9,-100.00,SE,137,1.0,2.0,-999,0.00,,,0.00,,2013-09-09 12:42:00,
2013-09-09 07:52:00,73.0,-99.9,-100.00,SE,137,1.0,2.0,-999,0.00,,,0.00,,2013-09-09 12:52:00,
2013-09-09 08:12:00,75.0,-99.9,-100.00,SE,137,1.0,2.0,-999,0.00,,,0.00,,2013-09-09 13:12:00,
2013-09-09 08:22:00,75.0,-99.9,-100.00,SE,137,1.0,2.0,-999,0.00,,,0.00,,2013-09-09 13:22:00,
2013-09-09 09:12:00,82.0,-99.9,-100.00,South,173,1.0,2.0,-999,0.00,,,0.00,,2013-09-09 14:12:00,
2013-09-09 09:22:00,82.0,-99.9,-100.00,South,173,1.0,2.0,-999,0.00,,,0.00,,2013-09-09 14:22:00,
2013-09-09 09:42:00,82.0,-99.9,-100.00,SW,219,3.0,6.0,-999,0.00,,,0.00,,2013-09-09 14:42:00,
2013-09-09 09:52:00,82.0,-99.9,-100.00,SW,219,3.0,6.0,-999,0.00,,,0.00,,2013-09-09 14:52:00,
2013-09-09 10:11:00,84.0,-99.9,-100.00,SW,234,4.0,6.0,-999,0.00,,,0.00,,2013-09-09 15:11:00,
2013-09-09 10:23:00,84.0,-99.9,-100.00,SW,234,4.0,6.0,-999,0.00,,,0.00,,2013-09-09 15:23:00,
2013-09-09 10:43:00,88.0,-99.9,-100.00,SW,230,3.0,5.0,-999,0.00,,,0.00,,2013-09-09 15:43:00,
2013-09-09 10:53:00,88.0,-99.9,-100.00,SW,230,3.0,5.0,-999,0.00,,,0.00,,2013-09-09 15:53:00,
2013-09-09 11:13:00,88.0,-99.9,-100.00,SW,235,4.0,7.0,-999,0.00,,,0.00,,2013-09-09 16:13:00,
2013-09-09 11:25:00,88.0,-99.9,-100.00,SW,235,4.0,7.0,-999,0.00,,,0.00,,2013-09-09 16:25:00,
2013-09-09 11:44:00,92.0,-99.9,-100.00,SW,222,3.0,6.0,-999,0.00,,,0.00,,2013-09-09 16:44:00,
2013-09-09 11:54:00,92.0,-99.9,-100.00,SW,222,3.0,6.0,-999,0.00,,,0.00,,2013-09-09 16:54:00,
2013-09-09 12:12:00,92.0,-99.9,-100.00,SW,229,4.0,8.0,-999,0.00,,,0.00,,2013-09-09 17:12:00,
2013-09-09 12:23:00,92.0,-99.9,-100.00,SW,229,4.0,8.0,-999,0.00,,,0.00,,2013-09-09 17:23:00,
2013-09-09 12:43:00,95.0,-99.9,-100.00,SW,214,4.0,7.0,-999,0.00,,,0.00,,2013-09-09 17:43:00,
2013-09-09 12:53:00,95.0,-99.9,-100.00,SW,214,4.0,7.0,-999,0.00,,,0.00,,2013-09-09 17:53:00,
2013-09-09 13:13:00,95.0,-99.9,-100.00,SW,226,6.0,9.0,-999,0.00,,,0.00,,2013-09-09 18:13:00,
2013-09-09 13:22:00,95.0,-99.9,-100.00,SW,226,6.0,9.0,-999,0.00,,,0.00,,2013-09-09 18:22:00,
2013-09-09 13:42:00,96.0,-99.9,-100.00,SW,235,6.0,9.0,-999,0.00,,,0.00,,2013-09-09 18:42:00,
2013-09-09 13:52:00,96.0,-99.9,-100.00,SW,235,6.0,9.0,-999,0.00,,,0.00,,2013-09-09 18:52:00,
2013-09-09 14:12:00,99.0,-99.9,-100.00,SW,228,7.0,10.0,-999,0.00,,,0.00,,2013-09-09 19:12:00,
2013-09-09 14:22:00,99.0,-99.9,-100.00,SW,228,7.0,10.0,-999,0.00,,,0.00,,2013-09-09 19:22:00,
2013-09-09 14:43:00,100.0,-99.9,-100.00,SW,216,7.0,13.0,-999,0.00,,,0.00,,2013-09-09 19:43:00,
2013-09-09 14:52:00,100.0,-99.9,-100.00,SW,216,7.0,13.0,-999,0.00,,,0.00,,2013-09-09 19:52:00,
2013-09-09 15:12:00,101.0,-99.9,-100.00,SW,222,7.0,10.0,-999,0.00,,,0.00,,2013-09-09 20:12:00,
2013-09-09 15:22:00,101.0,-99.9,-100.00,SW,222,7.0,10.0,-999,0.00,,,0.00,,2013-09-09 20:22:00,
2013-09-09 15:42:00,101.0,-99.9,-100.00,SW,229,8.0,13.0,-999,0.00,,,0.00,,2013-09-09 20:42:00,
2013-09-09 15:53:00,101.0,-99.9,-100.00,SW,229,8.0,13.0,-999,0.00,,,0.00,,2013-09-09 20:53:00,
2013-09-09 16:12:00,99.0,-99.9,-100.00,SW,227,8.0,10.0,-999,0.00,,,0.00,,2013-09-09 21:12:00,
2013-09-09 16:22:00,99.0,-99.9,-100.00,SW,227,8.0,10.0,-999,0.00,,,0.00,,2013-09-09 21:22:00,
2013-09-09 16:44:00,99.0,-99.9,-100.00,SW,221,6.0,8.0,-999,0.00,,,0.00,,2013-09-09 21:44:00,
2013-09-09 16:54:00,99.0,-99.9,-100.00,SW,221,6.0,8.0,-999,0.00,,,0.00,,2013-09-09 21:54:00,
2013-09-09 17:14:00,98.0,-99.9,-100.00,SW,218,8.0,13.0,-999,0.00,,,0.00,,2013-09-09 22:14:00,
2013-09-09 17:24:00,98.0,-99.9,-100.00,SW,218,8.0,13.0,-999,0.00,,,0.00,,2013-09-09 22:24:00,
2013-09-09 17:43:00,99.0,-99.9,-100.00,SSW,209,7.0,11.0,-999,0.00,,,0.00,,2013-09-09 22:43:00,
2013-09-09 17:54:00,99.0,-99.9,-100.00,SSW,209,7.0,11.0,-999,0.00,,,0.00,,2013-09-09 22:54:00,
2013-09-09 18:00:00,97.0,-99.9,-100.00,SSW,206,6.0,9.0,-999,0.00,,,0.00,,2013-09-09 23:00:00,
2013-09-09 18:12:00,98.0,-99.9,-100.00,SW,219,8.0,10.0,-999,0.00,,,0.00,,2013-09-09 23:12:00,
2013-09-09 18:22:00,98.0,-99.9,-100.00,SW,219,8.0,10.0,-999,0.00,,,0.00,,2013-09-09 23:22:00,
2013-09-09 18:43:00,97.0,-99.9,-100.00,SSW,206,6.0,9.0,-999,0.00,,,0.00,,2013-09-09 23:43:00,
2013-09-09 18:52:00,97.0,-99.9,-100.00,SSW,206,6.0,9.0,-999,0.00,,,0.00,,2013-09-09 23:52:00,
2013-09-09 19:42:00,93.0,-99.9,-100.00,SSW,209,6.0,7.0,-999,0.00,,,0.00,,2013-09-10 00:42:00,
2013-09-09 19:52:00,93.0,-99.9,-100.00,SSW,209,6.0,7.0,-999,0.00,,,0.00,,2013-09-10 00:52:00,
2013-09-09 20:12:00,91.0,-99.9,-100.00,SSW,204,5.0,7.0,-999,0.00,,,0.00,,2013-09-10 01:12:00,
2013-09-09 20:22:00,91.0,-99.9,-100.00,SSW,204,5.0,7.0,-999,0.00,,,0.00,,2013-09-10 01:22:00,
2013-09-09 20:42:00,89.0,-99.9,-100.00,SSW,203,4.0,5.0,-999,0.00,,,0.00,,2013-09-10 01:42:00,
2013-09-09 20:53:00,89.0,-99.9,-100.00,SSW,203,4.0,5.0,-999,0.00,,,0.00,,2013-09-10 01:53:00,
2013-09-09 21:12:00,87.0,-99.9,-100.00,SSW,201,2.0,3.0,-999,0.00,,,0.00,,2013-09-10 02:12:00,
2013-09-09 21:22:00,87.0,-99.9,-100.00,SSW,201,2.0,3.0,-999,0.00,,,0.00,,2013-09-10 02:22:00,
2013-09-09 21:42:00,83.0,-99.9,-100.00,SSE,164,1.0,2.0,-999,0.00,,,0.00,,2013-09-10 02:42:00,
2013-09-09 21:52:00,83.0,-99.9,-100.00,SSE,164,1.0,2.0,-999,0.00,,,0.00,,2013-09-10 02:52:00,
2013-09-09 22:12:00,80.0,-99.9,-100.00,SSE,160,0.0,0.0,-999,0.00,,,0.00,,2013-09-10 03:12:00,
2013-09-09 22:23:00,80.0,-99.9,-100.00,SSE,160,0.0,0.0,-999,0.00,,,0.00,,2013-09-10 03:23:00,
2013-09-09 22:44:00,78.0,-99.9,-100.00,South,170,0.0,0.0,-999,0.00,,,0.00,,2013-09-10 03:44:00,
2013-09-09 22:55:00,78.0,-99.9,-100.00,South,170,0.0,0.0,-999,0.00,,,0.00,,2013-09-10 03:55:00,
2013-09-09 23:13:00,77.0,-99.9,-100.00,SSE,147,0.0,1.0,-999,0.00,,,0.00,,2013-09-10 04:13:00,
2013-09-09 23:24:00,77.0,-99.9,-100.00,SSE,147,0.0,1.0,-999,0.00,,,0.00,,2013-09-10 04:24:00,
2013-09-09 23:43:00,76.0,-99.9,-100.00,SSE,158,0.0,1.0,-999,0.00,,,0.00,,2013-09-10 04:43:00,
2013-09-09 23:53:00,76.0,-99.9,-100.00,SSE,158,0.0,1.0,-999,0.00,,,0.00,,2013-09-10 04:53:00,